Time;durP1;ratioP1;P1;durP2;ratioP2;P2;SDS_P1;SDS_P2;PMS_P1;PMS_P2;Temp;Humidity;BMP_temperature;BMP_pressure;BME280_temperature;BME280_humidity;BME280_pressure;Samples;Min_cycle;Max_cycle;Signal;HPM_P1;HPM_P2
2023/02/16 00:00:49;;;;;;;63.17;23.03;;;;;;;1.25;100.00;101830.25;5015789;28;20479;-67
2023/02/16 00:03:19;;;;;;;54.10;21.67;;;;;;;1.15;100.00;101829.00;5015996;28;20530;-67
2023/02/16 00:05:46;;;;;;;37.43;20.03;;;;;;;1.22;100.00;101835.16;5015721;28;20446;-67
2023/02/16 00:08:13;;;;;;;54.80;21.80;;;;;;;1.15;100.00;101829.84;5015515;28;20499;-67
2023/02/16 00:10:40;;;;;;;50.13;20.20;;;;;;;1.30;100.00;101836.81;5015752;28;20961;-67
2023/02/16 00:16:05;;;;;;;40.40;18.37;;;;;;;1.29;100.00;101832.50;5015575;28;20873;-68
2023/02/16 00:18:33;;;;;;;34.60;15.80;;;;;;;1.34;100.00;101832.69;5015829;28;20421;-68
2023/02/16 00:20:59;;;;;;;34.90;15.70;;;;;;;1.33;100.00;101831.03;5015380;28;20968;-68
2023/02/16 00:23:26;;;;;;;36.50;16.00;;;;;;;1.48;100.00;101834.28;5015790;28;20440;-68
2023/02/16 00:25:52;;;;;;;34.03;16.17;;;;;;;1.47;100.00;101841.47;5015713;28;20873;-67
2023/02/16 00:28:20;;;;;;;31.80;14.53;;;;;;;1.43;100.00;101831.44;5015928;28;20527;-68
2023/02/16 00:30:48;;;;;;;27.77;12.00;;;;;;;1.35;100.00;101837.81;5015113;28;20803;-68
2023/02/16 00:33:17;;;;;;;24.60;11.03;;;;;;;1.39;100.00;101831.03;5014849;28;20494;-68
2023/02/16 00:35:45;;;;;;;20.70;10.40;;;;;;;1.47;100.00;101828.13;5015604;28;20542;-68
2023/02/16 00:38:12;;;;;;;21.87;10.40;;;;;;;1.50;100.00;101827.69;5015555;28;20450;-68
2023/02/16 00:40:39;;;;;;;20.53;11.30;;;;;;;1.45;100.00;101834.69;5015466;28;20527;-68
2023/02/16 00:43:06;;;;;;;21.57;9.13;;;;;;;1.40;100.00;101829.19;5015339;28;20884;-68
2023/02/16 00:45:37;;;;;;;27.23;10.10;;;;;;;1.29;100.00;101832.50;5015484;28;20451;-68
2023/02/16 00:48:04;;;;;;;20.30;9.97;;;;;;;1.32;100.00;101832.06;5015431;28;20551;-68
2023/02/16 00:50:32;;;;;;;18.20;9.47;;;;;;;1.43;100.00;101831.44;5015266;28;20895;-67
2023/02/16 00:53:01;;;;;;;22.87;10.33;;;;;;;1.30;100.00;101826.94;5015017;28;20527;-68
2023/02/16 00:55:30;;;;;;;26.40;10.00;;;;;;;1.34;100.00;101822.84;5015279;28;20855;-68
2023/02/16 00:58:04;;;;;;;22.67;10.87;;;;;;;1.31;100.00;101831.25;5014820;28;20475;-68
2023/02/16 01:00:34;;;;;;;18.77;9.70;;;;;;;1.12;100.00;101830.25;5015121;28;20435;-68
2023/02/16 01:03:05;;;;;;;21.27;11.03;;;;;;;1.20;100.00;101830.03;5015004;28;20451;-68
2023/02/16 01:05:31;;;;;;;24.13;12.07;;;;;;;1.23;100.00;101832.28;5014924;28;20449;-68
2023/02/16 01:13:29;;;;;;;23.50;10.17;;;;;;;1.10;100.00;101821.63;5014582;28;20443;-68
2023/02/16 01:15:56;;;;;;;21.93;10.90;;;;;;;0.92;100.00;101821.44;5014481;28;20577;-68
2023/02/16 01:18:23;;;;;;;20.73;10.90;;;;;;;0.98;100.00;101815.31;5014896;28;20424;-68
2023/02/16 01:20:49;;;;;;;26.27;11.00;;;;;;;1.08;100.00;101812.22;5014560;28;20531;-68
2023/02/16 01:23:17;;;;;;;21.03;9.63;;;;;;;1.16;100.00;101810.13;5014219;28;20450;-68
2023/02/16 01:25:44;;;;;;;20.57;10.40;;;;;;;1.16;100.00;101809.31;5014603;28;20475;-68
2023/02/16 01:28:17;;;;;;;21.63;11.20;;;;;;;1.21;100.00;101805.00;5014420;28;20484;-68
2023/02/16 01:30:44;;;;;;;30.50;11.43;;;;;;;1.18;100.00;101796.56;5014020;28;20977;-68
2023/02/16 01:33:10;;;;;;;30.40;10.73;;;;;;;1.19;100.00;101804.38;5014370;28;20531;-68
2023/02/16 01:35:37;;;;;;;22.07;11.17;;;;;;;0.93;100.00;101802.59;5014043;28;20479;-68
2023/02/16 01:38:04;;;;;;;29.93;12.63;;;;;;;0.89;100.00;101803.22;5014182;28;20498;-68
2023/02/16 01:40:40;;;;;;;23.73;10.50;;;;;;;1.03;100.00;101802.16;5013931;28;20879;-68
2023/02/16 01:43:18;;;;;;;24.93;12.67;;;;;;;0.81;100.00;101808.75;5013769;28;20422;-68
2023/02/16 01:45:49;;;;;;;17.93;9.20;;;;;;;0.88;100.00;101818.38;5014214;28;20527;-68
2023/02/16 01:48:21;;;;;;;23.77;11.30;;;;;;;0.86;100.00;101811.59;5014068;28;20416;-68
2023/02/16 01:50:55;;;;;;;26.13;10.70;;;;;;;0.89;100.00;101803.22;5014045;28;20475;-68
2023/02/16 01:53:30;;;;;;;27.37;10.33;;;;;;;0.79;100.00;101800.94;5014058;28;20428;-68
2023/02/16 01:56:02;;;;;;;24.33;12.00;;;;;;;0.78;100.00;101798.47;5013616;28;20458;-68
2023/02/16 01:58:37;;;;;;;31.57;12.50;;;;;;;0.81;100.00;101800.75;5013949;28;20448;-68
2023/02/16 02:01:39;;;;;;;27.93;11.10;;;;;;;0.71;100.00;101795.84;5013930;28;20451;-68
2023/02/16 02:06:58;;;;;;;24.23;12.63;;;;;;;0.49;100.00;101793.38;5013679;28;20442;-68
2023/02/16 02:09:32;;;;;;;33.27;13.60;;;;;;;0.55;100.00;101802.38;5013635;28;20487;-68
2023/02/16 02:12:09;;;;;;;27.27;13.07;;;;;;;0.49;100.00;101792.53;5013788;28;20456;-68
2023/02/16 02:14:38;;;;;;;22.37;12.90;;;;;;;0.41;100.00;101790.88;5013821;28;20424;-68
2023/02/16 02:17:08;;;;;;;29.70;12.27;;;;;;;0.41;100.00;101790.06;5013293;28;20471;-69
2023/02/16 02:19:45;;;;;;;32.07;14.33;;;;;;;0.44;100.00;101792.31;5013610;28;20447;-68
2023/02/16 02:25:45;;;;;;;33.90;13.17;;;;;;;0.34;100.00;101784.72;5013431;28;20542;-68
2023/02/16 02:28:19;;;;;;;23.40;11.50;;;;;;;0.44;100.00;101789.66;5013584;28;20471;-68
2023/02/16 02:30:51;;;;;;;31.87;12.60;;;;;;;0.28;100.00;101784.72;5013651;28;20495;-68
2023/02/16 02:33:33;;;;;;;28.93;12.90;;;;;;;0.33;100.00;101776.94;5013363;28;20523;-68
2023/02/16 02:36:13;;;;;;;30.43;14.23;;;;;;;0.40;100.00;101775.09;5013581;28;20436;-67
2023/02/16 02:38:53;;;;;;;32.40;13.90;;;;;;;0.48;100.00;101774.88;5013214;28;20420;-67
2023/02/16 02:42:02;;;;;;;33.17;13.30;;;;;;;0.40;100.00;101761.75;5013408;28;20432;-67
2023/02/16 02:44:20;;;;;;;32.03;13.63;;;;;;;0.35;100.00;101758.88;5012872;28;20441;-67
2023/02/16 02:46:47;;;;;;;25.17;13.17;;;;;;;0.37;100.00;101759.53;5013285;28;20475;-67
2023/02/16 02:49:13;;;;;;;32.27;13.80;;;;;;;0.25;99.18;101762.78;5013032;28;20484;-67
2023/02/16 02:51:40;;;;;;;34.50;12.20;;;;;;;0.25;99.84;101753.97;5013326;28;20478;-67
2023/02/16 03:02:35;;;;;;;30.27;13.93;;;;;;;0.35;99.89;101749.03;5017065;28;20532;-67
2023/02/16 03:05:05;;;;;;;30.80;13.63;;;;;;;0.27;99.56;101754.59;5017125;28;20539;-67
2023/02/16 03:13:10;;;;;;;24.10;12.50;;;;;;;0.19;100.00;101755.63;5016951;28;20413;-67
2023/02/16 03:15:39;;;;;;;29.60;12.93;;;;;;;0.24;100.00;101753.16;5016945;28;20787;-67
2023/02/16 03:29:17;;;;;;;30.83;13.87;;;;;;;0.27;100.00;101751.94;5016460;28;20408;-67
2023/02/16 03:31:46;;;;;;;24.33;12.07;;;;;;;0.39;100.00;101749.47;5016557;28;20432;-67
2023/02/16 03:34:14;;;;;;;26.97;11.43;;;;;;;0.35;100.00;101753.56;5016541;28;20447;-67
2023/02/16 03:36:43;;;;;;;29.67;12.87;;;;;;;0.36;100.00;101749.91;5016610;28;20492;-67
2023/02/16 03:39:11;;;;;;;31.23;11.83;;;;;;;0.29;100.00;101746.41;5016470;28;20440;-67
2023/02/16 03:41:40;;;;;;;20.07;10.40;;;;;;;0.35;100.00;101740.25;5016506;28;20523;-67
2023/02/16 03:44:07;;;;;;;30.60;13.47;;;;;;;0.33;100.00;101745.78;5016417;28;20446;-67
2023/02/16 03:46:34;;;;;;;28.53;11.60;;;;;;;0.23;99.03;101743.53;5016294;28;20551;-69
2023/02/16 03:49:02;;;;;;;26.50;13.23;;;;;;;0.24;98.87;101739.84;5016339;28;20448;-69
2023/02/16 03:51:28;;;;;;;25.97;12.13;;;;;;;0.22;99.21;101743.72;5016165;28;20490;-69
2023/02/16 03:53:55;;;;;;;29.73;12.30;;;;;;;0.24;99.46;101742.50;5016318;28;20458;-67
2023/02/16 03:56:21;;;;;;;24.63;12.87;;;;;;;0.19;98.86;101742.28;5016228;28;20463;-67
2023/02/16 03:58:48;;;;;;;25.67;12.27;;;;;;;0.17;99.53;101749.66;5015897;28;20942;-67
2023/02/16 04:01:15;;;;;;;24.57;11.80;;;;;;;0.07;99.41;101749.22;5016078;28;20834;-67
2023/02/16 04:03:41;;;;;;;20.40;10.63;;;;;;;0.12;99.73;101748.63;5016069;28;20448;-66
2023/02/16 04:06:09;;;;;;;25.60;11.90;;;;;;;0.21;99.25;101748.22;5015968;28;20460;-66
2023/02/16 04:08:36;;;;;;;24.80;11.47;;;;;;;0.14;98.73;101746.59;5016011;28;20450;-66
2023/02/16 04:12:34;;;;;;;25.60;12.67;;;;;;;0.14;98.02;101746.59;5015865;28;20696;-66
2023/02/16 04:13:49;;;;;;;23.00;10.57;;;;;;;0.13;98.67;101743.09;5015453;28;21007;-66
2023/02/16 04:16:16;;;;;;;25.43;12.33;;;;;;;0.06;98.91;101744.13;5015503;28;20483;-66
2023/02/16 04:18:42;;;;;;;28.93;11.77;;;;;;;-0.03;99.11;101743.50;5036498;22;20256;-68
2023/02/16 04:21:10;;;;;;;25.13;11.50;;;;;;;0.00;98.52;101745.75;5035500;28;20494;-68
2023/02/16 04:23:37;;;;;;;22.00;10.30;;;;;;;0.02;98.34;101746.38;5035435;28;20450;-68
2023/02/16 04:26:04;;;;;;;26.00;11.73;;;;;;;-0.04;98.73;101750.66;5035367;28;20443;-68
2023/02/16 04:28:30;;;;;;;29.80;10.37;;;;;;;0.03;98.66;101748.00;5034999;28;20475;-68
2023/02/16 04:30:57;;;;;;;23.47;11.13;;;;;;;0.04;98.41;101740.81;5035293;28;20489;-68
2023/02/16 04:33:23;;;;;;;25.37;10.50;;;;;;;0.10;97.49;101751.50;5035264;28;20531;-68
2023/02/16 04:35:50;;;;;;;21.30;9.70;;;;;;;0.15;96.99;101743.72;5035200;28;20443;-68
2023/02/16 04:38:18;;;;;;;21.67;10.83;;;;;;;0.04;97.99;101741.63;5035058;28;20541;-68
2023/02/16 04:40:44;;;;;;;23.50;10.97;;;;;;;0.06;98.21;101728.97;5035148;28;20439;-68
2023/02/16 04:43:11;;;;;;;20.27;10.87;;;;;;;0.17;97.83;101736.31;5035078;28;20471;-68
2023/02/16 04:45:37;;;;;;;29.60;10.57;;;;;;;0.11;98.42;101731.81;5035084;28;20952;-69
2023/02/16 04:48:05;;;;;;;24.00;10.97;;;;;;;0.06;99.35;101744.13;5035028;28;20467;-68
2023/02/16 04:50:31;;;;;;;22.93;10.40;;;;;;;0.12;99.14;101754.78;5034906;28;20490;-68
2023/02/16 04:52:58;;;;;;;24.83;11.60;;;;;;;0.09;99.56;101744.53;5034912;28;20451;-68
2023/02/16 04:55:26;;;;;;;21.33;9.90;;;;;;;0.07;99.78;101737.75;5034600;28;20959;-68
2023/02/16 04:57:52;;;;;;;23.63;10.80;;;;;;;0.05;99.94;101745.97;5034798;28;20502;-68
2023/02/16 05:00:20;;;;;;;20.00;9.73;;;;;;;-0.05;100.00;101741.00;5034583;28;20475;-68
2023/02/16 05:02:47;;;;;;;22.27;10.20;;;;;;;0.08;99.92;101732.22;5034430;28;20482;-68
2023/02/16 05:05:13;;;;;;;23.37;10.73;;;;;;;0.08;99.72;101737.56;5034349;28;20451;-68
2023/02/16 05:07:40;;;;;;;26.53;10.90;;;;;;;-0.01;100.00;101747.56;5034634;28;20462;-68
2023/02/16 05:10:07;;;;;;;23.23;10.07;;;;;;;-0.08;100.00;101741.44;5034546;28;20483;-68
2023/02/16 05:15:19;;;;;;;22.93;10.37;;;;;;;0.05;100.00;101748.63;5034310;28;20831;-68
2023/02/16 05:17:46;;;;;;;25.43;9.33;;;;;;;0.03;99.03;101740.00;5033565;28;20561;-68
2023/02/16 05:20:13;;;;;;;23.10;9.80;;;;;;;-0.01;98.02;101738.78;5034460;28;20530;-69
2023/02/16 05:22:39;;;;;;;19.00;9.40;;;;;;;-0.06;98.01;101744.69;5034321;28;20526;-68
2023/02/16 05:25:06;;;;;;;20.70;9.83;;;;;;;-0.06;97.33;101760.69;5034283;28;20471;-67
2023/02/16 05:27:34;;;;;;;27.70;12.00;;;;;;;-0.04;97.68;101752.50;5034154;28;21211;-69
2023/02/16 05:30:01;;;;;;;24.87;10.40;;;;;;;-0.08;97.63;101752.09;5034084;28;20483;-68
2023/02/16 05:32:28;;;;;;;23.10;10.87;;;;;;;-0.11;96.50;101746.34;5034137;28;20439;-68
2023/02/16 05:34:54;;;;;;;21.13;10.37;;;;;;;-0.16;96.97;101757.59;5033812;28;20929;-68
2023/02/16 05:37:21;;;;;;;20.87;10.40;;;;;;;-0.13;97.49;101751.06;5033991;28;20467;-68
2023/02/16 05:39:47;;;;;;;23.43;9.60;;;;;;;-0.10;97.08;101745.31;5034058;28;20884;-68
2023/02/16 05:42:14;;;;;;;31.40;11.33;;;;;;;-0.17;96.90;101747.97;5033695;28;20447;-68
2023/02/16 05:44:42;;;;;;;24.00;10.87;;;;;;;-0.15;96.97;101745.91;5033898;28;20518;-68
2023/02/16 05:47:08;;;;;;;22.67;10.03;;;;;;;-0.18;97.63;101751.63;5033842;28;20865;-68
2023/02/16 05:49:35;;;;;;;22.73;9.80;;;;;;;-0.17;97.79;101755.13;5033836;28;20478;-68
2023/02/16 05:52:02;;;;;;;25.20;10.50;;;;;;;-0.12;98.35;101752.69;5033395;28;20486;-69
2023/02/16 05:54:28;;;;;;;20.67;8.63;;;;;;;-0.13;99.04;101756.38;5033633;28;20482;-68
2023/02/16 05:56:55;;;;;;;24.57;10.93;;;;;;;-0.14;99.15;101762.69;5033245;28;20999;-68
2023/02/16 05:59:22;;;;;;;27.30;10.23;;;;;;;-0.12;99.10;101760.69;5033623;28;20864;-69
2023/02/16 06:01:50;;;;;;;21.33;10.23;;;;;;;-0.06;98.69;101763.34;5033228;28;20531;-68
2023/02/16 06:04:17;;;;;;;20.50;9.47;;;;;;;-0.10;99.16;101754.13;5033473;28;20479;-67
2023/02/16 06:06:44;;;;;;;20.07;8.90;;;;;;;-0.14;99.73;101752.06;5033437;28;20530;-68
2023/02/16 06:09:11;;;;;;;28.17;10.57;;;;;;;-0.10;99.49;101754.13;5033445;28;20458;-68
2023/02/16 06:11:37;;;;;;;25.90;10.97;;;;;;;-0.13;98.86;101756.38;5033332;28;20497;-70
2023/02/16 06:14:06;;;;;;;27.27;10.30;;;;;;;-0.07;99.35;101755.56;5033453;28;20486;-68
2023/02/16 06:16:34;;;;;;;21.90;9.83;;;;;;;-0.08;98.92;101753.94;5032975;28;20455;-68
2023/02/16 06:19:03;;;;;;;22.30;8.90;;;;;;;-0.02;98.56;101751.25;5032895;28;20510;-69
2023/02/16 06:21:29;;;;;;;24.73;9.63;;;;;;;-0.06;99.35;101763.34;5033305;28;20480;-68
2023/02/16 06:23:56;;;;;;;21.83;9.67;;;;;;;0.02;99.18;101759.69;5033064;28;20443;-68
2023/02/16 06:26:23;;;;;;;25.27;10.37;;;;;;;-0.09;99.24;101761.09;5033134;28;20450;-69
2023/02/16 06:28:50;;;;;;;19.00;9.63;;;;;;;-0.08;99.91;101768.06;5032541;28;20459;-68
2023/02/16 06:31:16;;;;;;;26.37;10.80;;;;;;;-0.03;99.95;101762.13;5032265;28;20479;-69
2023/02/16 06:33:43;;;;;;;26.37;10.20;;;;;;;-0.09;99.50;101768.25;5032587;28;20482;-69
2023/02/16 06:36:11;;;;;;;23.87;10.07;;;;;;;0.03;99.99;101771.97;5032994;28;20486;-70
2023/02/16 06:38:38;;;;;;;19.40;8.90;;;;;;;0.08;100.00;101772.19;5032744;28;20473;-68
2023/02/16 06:41:04;;;;;;;24.50;10.63;;;;;;;0.17;100.00;101762.16;5032943;28;20447;-69
2023/02/16 06:43:31;;;;;;;19.40;9.67;;;;;;;0.30;100.00;101759.50;5033011;28;20458;-69
2023/02/16 06:45:58;;;;;;;20.70;9.27;;;;;;;0.35;100.00;101765.03;5033156;28;20534;-69
2023/02/16 06:48:24;;;;;;;21.43;9.20;;;;;;;0.49;100.00;101758.72;5032925;28;20554;-69
2023/02/16 06:50:51;;;;;;;17.67;9.17;;;;;;;0.67;100.00;101771.41;5032912;28;20582;-69
2023/02/16 06:53:20;;;;;;;23.73;10.53;;;;;;;0.73;100.00;101772.44;5032666;28;20964;-70
2023/02/16 06:55:47;;;;;;;21.03;8.63;;;;;;;0.80;100.00;101783.94;5033016;28;20442;-69
2023/02/16 06:58:14;;;;;;;16.47;7.80;;;;;;;0.83;100.00;101769.34;5032848;28;20482;-70
2023/02/16 07:00:41;;;;;;;23.03;9.93;;;;;;;0.92;100.00;101779.59;5032928;28;20443;-69
2023/02/16 07:03:07;;;;;;;17.07;8.43;;;;;;;0.94;100.00;101779.41;5033017;28;20446;-68
2023/02/16 07:05:34;;;;;;;20.13;9.57;;;;;;;1.03;100.00;101783.47;5032555;28;20960;-69
2023/02/16 07:08:00;;;;;;;17.17;8.87;;;;;;;1.11;100.00;101769.94;5032481;28;20452;-69
2023/02/16 07:10:28;;;;;;;23.47;9.07;;;;;;;1.13;100.00;101775.88;5032704;28;20439;-69
2023/02/16 07:12:55;;;;;;;26.30;10.27;;;;;;;1.14;100.00;101776.69;5032473;28;20486;-69
2023/02/16 07:15:22;;;;;;;21.97;9.50;;;;;;;1.23;100.00;101767.41;5032755;28;20797;-70
2023/02/16 07:17:48;;;;;;;22.50;9.30;;;;;;;1.33;100.00;101766.97;5032384;28;20493;-69
2023/02/16 07:20:16;;;;;;;23.90;9.47;;;;;;;1.44;100.00;101769.00;5032842;28;20474;-70
2023/02/16 07:22:43;;;;;;;20.53;9.07;;;;;;;1.46;100.00;101761.59;5032715;28;20447;-73
2023/02/16 07:25:09;;;;;;;23.20;9.83;;;;;;;1.55;100.00;101755.00;5032538;28;20447;-73
2023/02/16 07:27:37;;;;;;;23.63;8.80;;;;;;;1.64;100.00;101753.72;5032691;28;20468;-70
2023/02/16 07:30:04;;;;;;;24.50;9.90;;;;;;;1.70;100.00;101760.88;5032404;28;20447;-74
2023/02/16 07:32:31;;;;;;;25.17;10.60;;;;;;;1.85;100.00;101759.78;5032295;28;20583;-69
2023/02/16 07:34:58;;;;;;;23.37;11.40;;;;;;;1.99;100.00;101753.31;5032432;28;20447;-70
2023/02/16 07:37:24;;;;;;;23.87;10.17;;;;;;;2.14;100.00;101747.69;5032425;28;20506;-70
2023/02/16 07:39:51;;;;;;;27.63;10.50;;;;;;;2.23;100.00;101759.75;5032543;28;20466;-69
2023/02/16 07:42:18;;;;;;;22.83;9.37;;;;;;;2.32;100.00;101754.97;5035404;28;20450;-70
2023/02/16 07:44:46;;;;;;;29.23;9.47;;;;;;;2.42;100.00;101760.63;5035869;28;20535;-70
2023/02/16 07:47:13;;;;;;;20.50;10.50;;;;;;;2.53;100.00;101767.97;5036027;28;20553;-69
2023/02/16 07:49:40;;;;;;;20.23;9.50;;;;;;;2.60;100.00;101768.72;5036670;28;20455;-70
2023/02/16 07:52:07;;;;;;;23.87;10.13;;;;;;;2.63;100.00;101765.59;5035901;28;20856;-70
2023/02/16 07:54:33;;;;;;;26.37;10.20;;;;;;;2.71;100.00;101778.72;5035902;28;20435;-69
2023/02/16 07:57:00;;;;;;;19.93;9.43;;;;;;;2.73;100.00;101773.94;5035763;28;20549;-69
2023/02/16 07:59:27;;;;;;;20.10;10.13;;;;;;;2.81;100.00;101774.72;5035931;28;20436;-69
2023/02/16 08:01:55;;;;;;;24.70;11.63;;;;;;;2.89;100.00;101779.78;5035509;28;20940;-68
2023/02/16 08:04:21;;;;;;;22.70;10.07;;;;;;;2.92;100.00;101784.69;5035991;28;20450;-69
2023/02/16 08:06:48;;;;;;;29.93;10.83;;;;;;;2.92;100.00;101793.56;5035889;28;20454;-69
2023/02/16 08:09:15;;;;;;;22.43;8.90;;;;;;;2.98;100.00;101783.81;5035486;28;20530;-68
2023/02/16 08:11:42;;;;;;;15.77;8.30;;;;;;;3.05;100.00;101789.91;5035596;28;20577;-67
2023/02/16 08:14:09;;;;;;;20.40;9.27;;;;;;;3.11;100.00;101790.91;5035663;28;20538;-68
2023/02/16 08:16:35;;;;;;;25.67;9.97;;;;;;;3.13;100.00;101797.66;5035510;28;20444;-68
2023/02/16 08:19:03;;;;;;;20.47;9.60;;;;;;;3.18;100.00;101795.13;5034997;28;20554;-68
2023/02/16 08:21:32;;;;;;;21.33;9.40;;;;;;;3.18;100.00;101787.09;5035432;28;20443;-69
2023/02/16 08:24:01;;;;;;;23.83;10.20;;;;;;;3.23;100.00;101789.97;5035550;28;20447;-69
2023/02/16 08:26:32;;;;;;;25.97;11.00;;;;;;;3.30;100.00;101787.19;5035217;28;20453;-70
2023/02/16 08:29:00;;;;;;;23.43;10.33;;;;;;;3.36;100.00;101778.25;5035245;28;20456;-68
2023/02/16 08:31:29;;;;;;;26.27;11.10;;;;;;;3.42;100.00;101789.97;5034938;28;20896;-68
2023/02/16 08:33:59;;;;;;;25.10;9.73;;;;;;;3.50;100.00;101781.63;5035247;28;20443;-69
2023/02/16 08:36:31;;;;;;;28.80;11.47;;;;;;;3.60;100.00;101781.09;5035151;28;20446;-68
2023/02/16 08:38:58;;;;;;;30.17;10.73;;;;;;;3.65;100.00;101771.34;5035075;28;20467;-69
2023/02/16 08:41:29;;;;;;;29.97;10.30;;;;;;;3.73;100.00;101773.69;5035108;28;20435;-70
2023/02/16 08:43:56;;;;;;;23.07;10.97;;;;;;;3.78;100.00;101778.38;5035081;28;20442;-71
2023/02/16 08:46:22;;;;;;;18.83;7.90;;;;;;;3.87;100.00;101770.84;5035032;28;20443;-70
2023/02/16 08:48:49;;;;;;;29.47;11.30;;;;;;;3.96;100.00;101772.97;5034916;28;20547;-69
2023/02/16 08:51:17;;;;;;;25.73;11.33;;;;;;;4.05;100.00;101768.13;5034665;28;20578;-69
2023/02/16 08:53:46;;;;;;;23.43;11.00;;;;;;;4.20;100.00;101773.88;5033977;28;20439;-69
2023/02/16 08:56:15;;;;;;;23.23;10.50;;;;;;;4.21;100.00;101775.53;5034802;28;20443;-69
2023/02/16 08:58:42;;;;;;;26.17;11.03;;;;;;;4.34;100.00;101769.13;5034371;28;20916;-69
2023/02/16 09:01:10;;;;;;;30.40;11.53;;;;;;;4.47;100.00;101760.03;5034748;28;20534;-69
2023/02/16 09:03:40;;;;;;;23.83;11.67;;;;;;;4.54;99.93;101766.94;5034671;28;20447;-69
2023/02/16 09:06:06;;;;;;;23.10;10.30;;;;;;;4.69;99.45;101774.56;5034654;28;20493;-69
2023/02/16 09:08:36;;;;;;;23.87;10.03;;;;;;;4.79;98.77;101765.94;5034062;28;20471;-69
2023/02/16 09:11:05;;;;;;;43.77;11.70;;;;;;;4.86;98.39;101771.16;5034495;28;20454;-69
2023/02/16 09:13:33;;;;;;;22.57;10.77;;;;;;;4.95;97.58;101775.13;5034198;28;20495;-70
2023/02/16 09:16:02;;;;;;;26.93;12.00;;;;;;;5.14;96.69;101775.84;5034146;28;20538;-70
2023/02/16 09:18:29;;;;;;;25.27;11.77;;;;;;;5.22;96.04;101772.78;5033953;28;20847;-70
2023/02/16 09:20:56;;;;;;;20.83;9.47;;;;;;;5.36;95.05;101770.63;5034363;28;20486;-69
2023/02/16 09:23:23;;;;;;;25.87;10.43;;;;;;;5.48;94.31;101772.25;5034264;28;20443;-69
2023/02/16 09:25:50;;;;;;;24.40;11.00;;;;;;;5.64;92.13;101773.38;5034207;28;20439;-69
2023/02/16 09:28:18;;;;;;;33.57;11.60;;;;;;;5.74;92.12;101768.22;5033736;28;20470;-69
2023/02/16 09:30:44;;;;;;;35.03;12.43;;;;;;;5.83;92.08;101774.81;5034125;28;20453;-69
2023/02/16 09:33:11;;;;;;;19.83;9.13;;;;;;;5.97;91.87;101766.50;5033566;28;20482;-69
2023/02/16 09:35:39;;;;;;;25.63;11.23;;;;;;;6.09;90.94;101769.97;5033799;28;20945;-69
2023/02/16 09:38:06;;;;;;;25.63;10.83;;;;;;;6.15;90.51;101768.19;5033937;28;20463;-69
2023/02/16 09:40:33;;;;;;;26.80;10.70;;;;;;;6.31;90.01;101765.50;5033984;28;20538;-69
2023/02/16 09:43:08;;;;;;;33.93;12.13;;;;;;;6.37;88.07;101762.91;5033962;28;20817;-71
2023/02/16 09:45:43;;;;;;;29.10;11.43;;;;;;;6.52;88.21;101766.69;5034261;28;20529;-69
2023/02/16 09:48:22;;;;;;;25.17;10.40;;;;;;;6.71;86.27;101767.22;5033826;28;20534;-69
2023/02/16 09:50:52;;;;;;;29.20;11.07;;;;;;;6.82;85.97;101760.94;5033877;28;20526;-69
2023/02/16 09:53:23;;;;;;;23.50;10.27;;;;;;;6.98;85.25;101761.97;5033396;28;20976;-70
2023/02/16 09:55:58;;;;;;;27.67;11.30;;;;;;;7.18;83.61;101769.53;5033750;28;20433;-70
2023/02/16 09:58:32;;;;;;;28.77;10.50;;;;;;;7.35;83.10;101774.88;5033577;28;20471;-70
2023/02/16 10:01:08;;;;;;;18.77;9.30;;;;;;;7.44;80.52;101776.06;5033627;28;20427;-70
2023/02/16 10:03:53;;;;;;;29.37;12.07;;;;;;;7.56;80.00;101773.25;5033174;28;20438;-71
2023/02/16 10:06:41;;;;;;;38.67;11.60;;;;;;;7.60;79.38;101766.28;5033308;28;20506;-69
2023/02/16 10:09:12;;;;;;;21.80;10.83;;;;;;;7.68;78.44;101776.63;5033461;28;20481;-70
2023/02/16 10:11:47;;;;;;;32.13;12.23;;;;;;;7.70;80.00;101771.81;5033796;28;21002;-70
2023/02/16 10:14:24;;;;;;;19.60;9.50;;;;;;;7.79;78.59;101770.28;5033462;28;20434;-70
2023/02/16 10:16:56;;;;;;;24.07;9.97;;;;;;;7.92;78.61;101776.34;5032898;28;20504;-70
2023/02/16 10:19:28;;;;;;;25.60;10.70;;;;;;;8.02;78.29;101777.28;5032997;28;20529;-70
2023/02/16 10:21:59;;;;;;;27.80;10.93;;;;;;;8.10;77.61;101778.69;5032961;28;20924;-70
2023/02/16 10:24:29;;;;;;;30.10;12.43;;;;;;;8.22;76.48;101778.53;5033250;28;20435;-70
2023/02/16 10:27:03;;;;;;;24.73;11.27;;;;;;;8.34;74.39;101769.22;5033150;28;20474;-70
2023/02/16 10:29:30;;;;;;;22.17;9.37;;;;;;;8.37;75.34;101769.78;5033187;28;20427;-70
2023/02/16 10:32:13;;;;;;;24.43;11.53;;;;;;;8.51;74.76;101769.13;5032771;28;20929;-71
2023/02/16 10:34:49;;;;;;;29.23;11.30;;;;;;;8.50;73.08;101766.66;5033171;28;20505;-70
2023/02/16 10:37:35;;;;;;;25.80;10.40;;;;;;;8.56;73.01;101762.94;5033031;28;20470;-70
2023/02/16 10:40:30;;;;;;;23.30;8.70;;;;;;;8.69;72.76;101754.41;5032932;28;20427;-70
2023/02/16 10:43:04;;;;;;;21.70;9.83;;;;;;;8.75;72.51;101753.34;5032820;28;20949;-72
2023/02/16 10:45:35;;;;;;;39.77;11.90;;;;;;;8.75;71.55;101761.44;5033086;28;20427;-70
2023/02/16 10:48:04;;;;;;;27.47;11.87;;;;;;;8.86;70.44;101762.34;5032697;28;20850;-70
2023/02/16 10:50:37;;;;;;;25.33;11.73;;;;;;;8.91;70.69;101756.16;5032649;28;20450;-70
2023/02/16 10:53:10;;;;;;;27.73;11.00;;;;;;;9.01;70.68;101762.44;5033019;28;20482;-71
2023/02/16 10:55:37;;;;;;;25.77;11.90;;;;;;;9.12;70.81;101757.91;5032972;28;20438;-70
2023/02/16 10:58:03;;;;;;;30.40;10.97;;;;;;;9.17;69.81;101752.53;5032516;28;20506;-70
2023/02/16 11:00:45;;;;;;;25.57;11.70;;;;;;;9.33;69.30;101754.22;5033932;28;20447;-70
2023/02/16 11:03:14;;;;;;;25.37;10.97;;;;;;;9.34;69.32;101753.16;5033001;28;20434;-70
2023/02/16 11:05:41;;;;;;;23.40;10.87;;;;;;;9.39;68.85;101749.66;5032926;28;20451;-71
2023/02/16 11:08:12;;;;;;;26.50;11.00;;;;;;;9.46;69.13;101747.50;5032596;28;20521;-70
2023/02/16 11:10:45;;;;;;;28.77;10.20;;;;;;;9.52;68.92;101749.19;5032578;28;20427;-71
2023/02/16 11:13:24;;;;;;;38.13;10.87;;;;;;;9.52;67.39;101745.66;5032810;28;20467;-70
2023/02/16 11:15:53;;;;;;;31.43;11.53;;;;;;;9.65;68.03;101738.91;5033308;28;20943;-70
2023/02/16 11:18:30;;;;;;;23.33;10.27;;;;;;;9.61;67.66;101738.66;5036136;28;20482;-71
2023/02/16 11:20:57;;;;;;;26.07;11.60;;;;;;;9.76;66.91;101730.56;5036717;28;20470;-70
2023/02/16 11:23:25;;;;;;;26.77;11.27;;;;;;;9.92;67.48;101733.31;5036743;28;20489;-70
2023/02/16 11:25:58;;;;;;;25.23;10.30;;;;;;;9.96;66.46;101735.22;5036296;28;20482;-72
2023/02/16 11:28:28;;;;;;;31.63;12.70;;;;;;;10.05;65.95;101730.09;5036327;28;20491;-71
2023/02/16 11:31:01;;;;;;;28.57;11.97;;;;;;;10.19;66.45;101717.66;5036391;28;20605;-70
2023/02/16 11:33:30;;;;;;;25.60;10.40;;;;;;;10.60;65.46;101721.16;5036348;28;20510;-72
2023/02/16 11:35:57;;;;;;;24.23;12.30;;;;;;;11.29;63.42;101714.22;5036359;28;20443;-70
2023/02/16 11:38:28;;;;;;;27.73;11.77;;;;;;;12.04;59.94;101719.53;5036204;28;20467;-72
2023/02/16 11:40:56;;;;;;;33.70;11.20;;;;;;;12.77;58.50;101720.50;5036342;28;20455;-70
2023/02/16 11:43:27;;;;;;;28.20;11.30;;;;;;;13.31;56.59;101724.81;5035766;28;20487;-69
2023/02/16 11:46:03;;;;;;;24.10;10.40;;;;;;;13.90;54.49;101728.94;5035868;28;20526;-70
2023/02/16 11:48:33;;;;;;;23.23;10.40;;;;;;;14.43;52.94;101723.16;5036046;28;20558;-68
2023/02/16 11:51:01;;;;;;;30.83;11.07;;;;;;;15.03;50.73;101719.66;5036009;28;20443;-68
2023/02/16 11:53:31;;;;;;;22.63;9.47;;;;;;;15.00;49.78;101728.44;5035920;28;20525;-69
2023/02/16 11:56:17;;;;;;;29.23;11.87;;;;;;;15.09;49.22;101719.22;5035999;28;20528;-68
2023/02/16 11:58:44;;;;;;;27.30;10.77;;;;;;;15.37;48.44;101722.75;5032100;28;20549;-71
2023/02/16 12:01:22;;;;;;;20.67;10.37;;;;;;;15.97;48.22;101727.19;5008208;28;20479;-69
2023/02/16 12:04:03;;;;;;;23.03;9.43;;;;;;;16.46;46.78;101727.38;5012247;28;20819;-69
2023/02/16 12:06:48;;;;;;;20.47;9.27;;;;;;;16.66;45.91;101724.13;5013475;28;20965;-69